sensor_id;sensor_type;location;lat;lon;timestamp;pressure;altitude;pressure_sealevel;temperature
68911;BMP180;55953;51.650;-0.522;2024-03-06T00:00:04;100980.20;;;4.20
68911;BMP180;55953;51.650;-0.522;2024-03-06T00:02:35;100985.00;;;4.30
68911;BMP180;55953;51.650;-0.522;2024-03-06T00:05:04;100983.80;;;4.30
68911;BMP180;55953;51.650;-0.522;2024-03-06T00:07:32;100989.40;;;4.50
68911;BMP180;55953;51.650;-0.522;2024-03-06T00:10:00;100985.60;;;4.40
68911;BMP180;55953;51.650;-0.522;2024-03-06T00:12:28;100986.60;;;4.40
68911;BMP180;55953;51.650;-0.522;2024-03-06T00:14:56;100987.40;;;4.40
68911;BMP180;55953;51.650;-0.522;2024-03-06T00:17:24;100983.80;;;4.30
68911;BMP180;55953;51.650;-0.522;2024-03-06T00:19:52;100987.00;;;4.20
68911;BMP180;55953;51.650;-0.522;2024-03-06T00:22:20;100986.00;;;4.10
68911;BMP180;55953;51.650;-0.522;2024-03-06T00:24:51;100988.80;;;4.20
68911;BMP180;55953;51.650;-0.522;2024-03-06T00:27:19;100995.60;;;4.10
68911;BMP180;55953;51.650;-0.522;2024-03-06T00:29:47;100992.40;;;4.10
68911;BMP180;55953;51.650;-0.522;2024-03-06T00:32:15;100998.80;;;4.10
68911;BMP180;55953;51.650;-0.522;2024-03-06T00:34:43;100998.20;;;4.20
68911;BMP180;55953;51.650;-0.522;2024-03-06T00:37:11;100996.80;;;4.10
68911;BMP180;55953;51.650;-0.522;2024-03-06T00:39:39;100997.00;;;4.10
68911;BMP180;55953;51.650;-0.522;2024-03-06T00:42:07;100992.00;;;4.20
68911;BMP180;55953;51.650;-0.522;2024-03-06T00:44:36;100997.00;;;4.30
68911;BMP180;55953;51.650;-0.522;2024-03-06T00:47:05;100992.80;;;4.30
68911;BMP180;55953;51.650;-0.522;2024-03-06T00:49:33;100995.00;;;4.30
68911;BMP180;55953;51.650;-0.522;2024-03-06T00:52:01;100996.40;;;4.30
68911;BMP180;55953;51.650;-0.522;2024-03-06T00:54:29;100997.40;;;4.20
68911;BMP180;55953;51.650;-0.522;2024-03-06T00:56:57;100995.00;;;4.18
68911;BMP180;55953;51.650;-0.522;2024-03-06T00:59:25;100998.40;;;4.10
68911;BMP180;55953;51.650;-0.522;2024-03-06T01:01:54;101000.80;;;4.08
68911;BMP180;55953;51.650;-0.522;2024-03-06T01:04:25;101001.60;;;4.00
68911;BMP180;55953;51.650;-0.522;2024-03-06T01:06:53;100999.20;;;4.00
68911;BMP180;55953;51.650;-0.522;2024-03-06T01:09:21;101007.00;;;4.10
68911;BMP180;55953;51.650;-0.522;2024-03-06T01:11:50;101005.80;;;4.10
68911;BMP180;55953;51.650;-0.522;2024-03-06T01:14:18;101007.40;;;4.00
68911;BMP180;55953;51.650;-0.522;2024-03-06T01:16:46;101006.20;;;4.00
68911;BMP180;55953;51.650;-0.522;2024-03-06T01:19:14;101006.40;;;4.00
68911;BMP180;55953;51.650;-0.522;2024-03-06T01:21:42;101004.80;;;3.90
68911;BMP180;55953;51.650;-0.522;2024-03-06T01:24:10;101014.20;;;3.96
68911;BMP180;55953;51.650;-0.522;2024-03-06T01:26:38;101012.80;;;4.00
68911;BMP180;55953;51.650;-0.522;2024-03-06T01:29:08;101019.60;;;4.10
68911;BMP180;55953;51.650;-0.522;2024-03-06T01:31:35;101022.60;;;4.12
68911;BMP180;55953;51.650;-0.522;2024-03-06T01:34:04;101019.00;;;4.20
68911;BMP180;55953;51.650;-0.522;2024-03-06T01:36:32;101016.40;;;4.26
68911;BMP180;55953;51.650;-0.522;2024-03-06T01:39:00;101020.60;;;4.30
68911;BMP180;55953;51.650;-0.522;2024-03-06T01:41:29;101022.20;;;4.26
68911;BMP180;55953;51.650;-0.522;2024-03-06T01:43:57;101018.40;;;4.20
68911;BMP180;55953;51.650;-0.522;2024-03-06T01:46:25;101023.80;;;4.30
68911;BMP180;55953;51.650;-0.522;2024-03-06T01:48:53;101023.00;;;4.32
68911;BMP180;55953;51.650;-0.522;2024-03-06T01:51:21;101021.80;;;4.40
68911;BMP180;55953;51.650;-0.522;2024-03-06T01:53:50;101019.80;;;4.50
68911;BMP180;55953;51.650;-0.522;2024-03-06T01:56:18;101020.40;;;4.60
68911;BMP180;55953;51.650;-0.522;2024-03-06T01:58:47;101020.00;;;4.72
68911;BMP180;55953;51.650;-0.522;2024-03-06T02:01:16;101020.00;;;4.80
68911;BMP180;55953;51.650;-0.522;2024-03-06T02:03:45;101014.00;;;4.96
68911;BMP180;55953;51.650;-0.522;2024-03-06T02:06:14;101017.20;;;5.00
68911;BMP180;55953;51.650;-0.522;2024-03-06T02:08:47;101016.20;;;5.00
68911;BMP180;55953;51.650;-0.522;2024-03-06T02:11:15;101021.00;;;5.00
68911;BMP180;55953;51.650;-0.522;2024-03-06T02:13:46;101018.80;;;5.00
68911;BMP180;55953;51.650;-0.522;2024-03-06T02:16:14;101026.20;;;5.00
68911;BMP180;55953;51.650;-0.522;2024-03-06T02:18:56;101029.00;;;4.90
68911;BMP180;55953;51.650;-0.522;2024-03-06T02:21:27;101031.20;;;4.86
68911;BMP180;55953;51.650;-0.522;2024-03-06T02:23:55;101027.40;;;4.80
68911;BMP180;55953;51.650;-0.522;2024-03-06T02:26:23;101027.80;;;4.88
68911;BMP180;55953;51.650;-0.522;2024-03-06T02:28:54;101034.20;;;4.90
68911;BMP180;55953;51.650;-0.522;2024-03-06T02:31:22;101032.60;;;4.90
68911;BMP180;55953;51.650;-0.522;2024-03-06T02:33:50;101026.20;;;4.90
68911;BMP180;55953;51.650;-0.522;2024-03-06T02:36:18;101025.80;;;4.90
68911;BMP180;55953;51.650;-0.522;2024-03-06T02:38:46;101019.20;;;5.08
68911;BMP180;55953;51.650;-0.522;2024-03-06T02:41:15;101014.00;;;5.10
68911;BMP180;55953;51.650;-0.522;2024-03-06T02:43:44;101015.40;;;5.10
68911;BMP180;55953;51.650;-0.522;2024-03-06T02:46:11;101007.40;;;5.10
68911;BMP180;55953;51.650;-0.522;2024-03-06T02:48:39;101005.60;;;5.10
68911;BMP180;55953;51.650;-0.522;2024-03-06T02:51:07;101008.80;;;5.10
68911;BMP180;55953;51.650;-0.522;2024-03-06T02:53:35;101004.40;;;5.16
68911;BMP180;55953;51.650;-0.522;2024-03-06T02:56:03;101003.00;;;5.28
68911;BMP180;55953;51.650;-0.522;2024-03-06T02:58:35;101003.00;;;5.20
68911;BMP180;55953;51.650;-0.522;2024-03-06T03:01:03;101001.80;;;5.10
68911;BMP180;55953;51.650;-0.522;2024-03-06T03:03:31;101001.60;;;5.10
68911;BMP180;55953;51.650;-0.522;2024-03-06T03:05:59;101004.40;;;5.10
68911;BMP180;55953;51.650;-0.522;2024-03-06T03:08:27;101006.60;;;5.10
68911;BMP180;55953;51.650;-0.522;2024-03-06T03:10:55;101004.40;;;5.30
68911;BMP180;55953;51.650;-0.522;2024-03-06T03:13:24;101005.80;;;5.32
68911;BMP180;55953;51.650;-0.522;2024-03-06T03:15:52;101013.20;;;5.50
68911;BMP180;55953;51.650;-0.522;2024-03-06T03:18:20;101011.00;;;5.60
68911;BMP180;55953;51.650;-0.522;2024-03-06T03:20:47;101015.00;;;5.50
68911;BMP180;55953;51.650;-0.522;2024-03-06T03:23:15;101013.40;;;5.50
68911;BMP180;55953;51.650;-0.522;2024-03-06T03:25:49;101013.60;;;5.46
68911;BMP180;55953;51.650;-0.522;2024-03-06T03:28:18;101012.40;;;5.50
68911;BMP180;55953;51.650;-0.522;2024-03-06T03:30:46;101014.60;;;5.40
68911;BMP180;55953;51.650;-0.522;2024-03-06T03:33:13;101009.40;;;5.38
68911;BMP180;55953;51.650;-0.522;2024-03-06T03:35:41;101006.00;;;5.30
68911;BMP180;55953;51.650;-0.522;2024-03-06T03:38:09;101012.20;;;5.20
68911;BMP180;55953;51.650;-0.522;2024-03-06T03:40:37;101012.00;;;5.28
68911;BMP180;55953;51.650;-0.522;2024-03-06T03:43:05;101018.40;;;5.12
68911;BMP180;55953;51.650;-0.522;2024-03-06T03:45:35;101019.00;;;5.00
68911;BMP180;55953;51.650;-0.522;2024-03-06T03:48:04;101013.00;;;4.92
68911;BMP180;55953;51.650;-0.522;2024-03-06T03:50:33;101014.60;;;4.90
68911;BMP180;55953;51.650;-0.522;2024-03-06T03:53:01;101020.20;;;4.80
68911;BMP180;55953;51.650;-0.522;2024-03-06T03:55:29;101024.40;;;4.70
68911;BMP180;55953;51.650;-0.522;2024-03-06T03:57:57;101020.40;;;4.74
68911;BMP180;55953;51.650;-0.522;2024-03-06T04:00:25;101022.60;;;4.72
68911;BMP180;55953;51.650;-0.522;2024-03-06T04:02:53;101016.00;;;4.62
68911;BMP180;55953;51.650;-0.522;2024-03-06T04:05:21;101015.00;;;4.60
68911;BMP180;55953;51.650;-0.522;2024-03-06T04:07:50;101014.20;;;4.58
68911;BMP180;55953;51.650;-0.522;2024-03-06T04:10:18;101013.00;;;4.60
68911;BMP180;55953;51.650;-0.522;2024-03-06T04:12:46;101013.00;;;4.60
68911;BMP180;55953;51.650;-0.522;2024-03-06T04:15:14;101009.60;;;4.80
68911;BMP180;55953;51.650;-0.522;2024-03-06T04:17:42;101007.60;;;4.70
68911;BMP180;55953;51.650;-0.522;2024-03-06T04:20:10;101009.20;;;4.60
68911;BMP180;55953;51.650;-0.522;2024-03-06T04:22:39;101013.80;;;4.60
68911;BMP180;55953;51.650;-0.522;2024-03-06T04:25:08;101016.40;;;4.60
68911;BMP180;55953;51.650;-0.522;2024-03-06T04:27:37;101022.60;;;4.60
68911;BMP180;55953;51.650;-0.522;2024-03-06T04:30:06;101026.80;;;4.60
68911;BMP180;55953;51.650;-0.522;2024-03-06T04:32:34;101027.00;;;4.62
68911;BMP180;55953;51.650;-0.522;2024-03-06T04:35:01;101027.20;;;4.60
68911;BMP180;55953;51.650;-0.522;2024-03-06T04:37:29;101032.00;;;4.60
68911;BMP180;55953;51.650;-0.522;2024-03-06T04:39:58;101037.20;;;4.70
68911;BMP180;55953;51.650;-0.522;2024-03-06T04:42:26;101038.40;;;4.70
68911;BMP180;55953;51.650;-0.522;2024-03-06T04:44:54;101043.60;;;4.60
68911;BMP180;55953;51.650;-0.522;2024-03-06T04:47:24;101045.00;;;4.60
68911;BMP180;55953;51.650;-0.522;2024-03-06T04:49:56;101042.40;;;4.60
68911;BMP180;55953;51.650;-0.522;2024-03-06T04:52:25;101043.00;;;4.60
68911;BMP180;55953;51.650;-0.522;2024-03-06T04:54:53;101048.40;;;4.60
68911;BMP180;55953;51.650;-0.522;2024-03-06T04:57:21;101049.40;;;4.60
68911;BMP180;55953;51.650;-0.522;2024-03-06T04:59:49;101051.60;;;4.64
68911;BMP180;55953;51.650;-0.522;2024-03-06T05:02:17;101054.60;;;4.62
68911;BMP180;55953;51.650;-0.522;2024-03-06T05:04:45;101060.00;;;4.60
68911;BMP180;55953;51.650;-0.522;2024-03-06T05:07:31;101061.40;;;4.62
68911;BMP180;55953;51.650;-0.522;2024-03-06T05:10:17;101063.80;;;4.70
68911;BMP180;55953;51.650;-0.522;2024-03-06T05:13:02;101062.20;;;4.70
68911;BMP180;55953;51.650;-0.522;2024-03-06T05:15:48;101068.00;;;4.70
68911;BMP180;55953;51.650;-0.522;2024-03-06T05:18:34;101066.60;;;4.70
68911;BMP180;55953;51.650;-0.522;2024-03-06T05:21:20;101079.60;;;4.74
68911;BMP180;55953;51.650;-0.522;2024-03-06T05:24:07;101075.20;;;4.66
68911;BMP180;55953;51.650;-0.522;2024-03-06T05:26:52;101082.80;;;4.60
68911;BMP180;55953;51.650;-0.522;2024-03-06T05:29:38;101081.80;;;4.50
68911;BMP180;55953;51.650;-0.522;2024-03-06T05:32:23;101082.20;;;4.50
68911;BMP180;55953;51.650;-0.522;2024-03-06T05:35:08;101089.00;;;4.52
68911;BMP180;55953;51.650;-0.522;2024-03-06T05:37:57;101093.60;;;4.50
68911;BMP180;55953;51.650;-0.522;2024-03-06T05:40:42;101101.40;;;4.60
68911;BMP180;55953;51.650;-0.522;2024-03-06T05:43:30;101099.20;;;4.60
68911;BMP180;55953;51.650;-0.522;2024-03-06T05:46:15;101097.60;;;4.60
68911;BMP180;55953;51.650;-0.522;2024-03-06T05:49:01;101097.40;;;4.60
68911;BMP180;55953;51.650;-0.522;2024-03-06T05:51:47;101105.40;;;4.70
68911;BMP180;55953;51.650;-0.522;2024-03-06T05:54:32;101104.20;;;4.70
68911;BMP180;55953;51.650;-0.522;2024-03-06T05:57:20;101112.60;;;4.70
68911;BMP180;55953;51.650;-0.522;2024-03-06T06:00:06;101117.60;;;4.70
68911;BMP180;55953;51.650;-0.522;2024-03-06T06:02:39;101114.00;;;4.70
68911;BMP180;55953;51.650;-0.522;2024-03-06T06:05:07;101110.20;;;4.70
68911;BMP180;55953;51.650;-0.522;2024-03-06T06:07:51;101115.80;;;4.60
68911;BMP180;55953;51.650;-0.522;2024-03-06T06:10:19;101115.80;;;4.60
68911;BMP180;55953;51.650;-0.522;2024-03-06T06:12:49;101120.40;;;4.66
68911;BMP180;55953;51.650;-0.522;2024-03-06T06:15:17;101120.40;;;4.70
68911;BMP180;55953;51.650;-0.522;2024-03-06T06:17:45;101122.60;;;4.70
68911;BMP180;55953;51.650;-0.522;2024-03-06T06:20:14;101121.80;;;4.70
68911;BMP180;55953;51.650;-0.522;2024-03-06T06:22:46;101130.20;;;4.64
68911;BMP180;55953;51.650;-0.522;2024-03-06T06:25:14;101128.80;;;4.60
68911;BMP180;55953;51.650;-0.522;2024-03-06T06:27:44;101135.80;;;4.70
68911;BMP180;55953;51.650;-0.522;2024-03-06T06:30:12;101136.20;;;4.70
68911;BMP180;55953;51.650;-0.522;2024-03-06T06:32:42;101133.00;;;4.68
68911;BMP180;55953;51.650;-0.522;2024-03-06T06:35:11;101135.60;;;4.70
68911;BMP180;55953;51.650;-0.522;2024-03-06T06:37:41;101137.40;;;4.70
68911;BMP180;55953;51.650;-0.522;2024-03-06T06:40:10;101138.60;;;4.70
68911;BMP180;55953;51.650;-0.522;2024-03-06T06:42:49;101141.00;;;4.70
68911;BMP180;55953;51.650;-0.522;2024-03-06T06:45:19;101140.40;;;4.80
68911;BMP180;55953;51.650;-0.522;2024-03-06T06:47:49;101141.60;;;4.88
68911;BMP180;55953;51.650;-0.522;2024-03-06T06:50:17;101146.20;;;4.90
68911;BMP180;55953;51.650;-0.522;2024-03-06T06:52:46;101149.60;;;4.94
68911;BMP180;55953;51.650;-0.522;2024-03-06T06:55:15;101153.00;;;4.96
68911;BMP180;55953;51.650;-0.522;2024-03-06T06:57:43;101153.60;;;5.00
68911;BMP180;55953;51.650;-0.522;2024-03-06T07:00:12;101154.40;;;5.00
68911;BMP180;55953;51.650;-0.522;2024-03-06T07:02:40;101151.80;;;5.10
68911;BMP180;55953;51.650;-0.522;2024-03-06T07:05:11;101155.00;;;5.10
68911;BMP180;55953;51.650;-0.522;2024-03-06T07:07:40;101162.40;;;5.10
68911;BMP180;55953;51.650;-0.522;2024-03-06T07:10:08;101159.20;;;5.14
68911;BMP180;55953;51.650;-0.522;2024-03-06T07:12:36;101156.40;;;5.20
68911;BMP180;55953;51.650;-0.522;2024-03-06T07:15:05;101161.40;;;5.24
68911;BMP180;55953;51.650;-0.522;2024-03-06T07:17:34;101157.20;;;5.28
68911;BMP180;55953;51.650;-0.522;2024-03-06T07:20:03;101156.20;;;5.30
68911;BMP180;55953;51.650;-0.522;2024-03-06T07:22:33;101155.00;;;5.30
68911;BMP180;55953;51.650;-0.522;2024-03-06T07:25:02;101153.20;;;5.30
68911;BMP180;55953;51.650;-0.522;2024-03-06T07:27:30;101155.80;;;5.30
68911;BMP180;55953;51.650;-0.522;2024-03-06T07:29:58;101155.40;;;5.30
68911;BMP180;55953;51.650;-0.522;2024-03-06T07:32:26;101161.80;;;5.30
68911;BMP180;55953;51.650;-0.522;2024-03-06T07:34:54;101163.00;;;5.48
68911;BMP180;55953;51.650;-0.522;2024-03-06T07:37:22;101169.20;;;5.42
68911;BMP180;55953;51.650;-0.522;2024-03-06T07:39:50;101177.20;;;5.40
68911;BMP180;55953;51.650;-0.522;2024-03-06T07:42:20;101181.00;;;5.60
68911;BMP180;55953;51.650;-0.522;2024-03-06T07:44:49;101176.60;;;5.70
68911;BMP180;55953;51.650;-0.522;2024-03-06T07:47:18;101174.80;;;5.70
68911;BMP180;55953;51.650;-0.522;2024-03-06T07:49:46;101178.20;;;5.70
68911;BMP180;55953;51.650;-0.522;2024-03-06T07:52:14;101187.20;;;5.70
68911;BMP180;55953;51.650;-0.522;2024-03-06T07:54:41;101185.20;;;5.70
68911;BMP180;55953;51.650;-0.522;2024-03-06T07:57:08;101183.00;;;5.80
68911;BMP180;55953;51.650;-0.522;2024-03-06T07:59:36;101185.00;;;5.90
68911;BMP180;55953;51.650;-0.522;2024-03-06T08:02:03;101182.40;;;5.94
68911;BMP180;55953;51.650;-0.522;2024-03-06T08:04:31;101186.40;;;6.00
68911;BMP180;55953;51.650;-0.522;2024-03-06T08:06:58;101188.80;;;6.10
68911;BMP180;55953;51.650;-0.522;2024-03-06T08:09:25;101186.80;;;6.20
68911;BMP180;55953;51.650;-0.522;2024-03-06T08:11:55;101186.20;;;6.26
68911;BMP180;55953;51.650;-0.522;2024-03-06T08:14:22;101195.40;;;6.30
68911;BMP180;55953;51.650;-0.522;2024-03-06T08:16:50;101193.00;;;6.30
68911;BMP180;55953;51.650;-0.522;2024-03-06T08:19:17;101200.60;;;6.30
68911;BMP180;55953;51.650;-0.522;2024-03-06T08:21:44;101198.20;;;6.38
68911;BMP180;55953;51.650;-0.522;2024-03-06T08:24:12;101199.00;;;6.40
68911;BMP180;55953;51.650;-0.522;2024-03-06T08:26:39;101194.80;;;6.50
68911;BMP180;55953;51.650;-0.522;2024-03-06T08:29:06;101199.40;;;6.50
68911;BMP180;55953;51.650;-0.522;2024-03-06T08:31:33;101199.60;;;6.40
68911;BMP180;55953;51.650;-0.522;2024-03-06T08:34:00;101199.40;;;6.48
68911;BMP180;55953;51.650;-0.522;2024-03-06T08:36:27;101205.80;;;6.70
68911;BMP180;55953;51.650;-0.522;2024-03-06T08:38:54;101205.80;;;6.72
68911;BMP180;55953;51.650;-0.522;2024-03-06T08:41:21;101203.80;;;6.70
68911;BMP180;55953;51.650;-0.522;2024-03-06T08:43:48;101205.20;;;6.72
68911;BMP180;55953;51.650;-0.522;2024-03-06T08:46:15;101211.00;;;6.80
68911;BMP180;55953;51.650;-0.522;2024-03-06T08:48:42;101211.80;;;6.80
68911;BMP180;55953;51.650;-0.522;2024-03-06T08:51:09;101210.80;;;6.80
68911;BMP180;55953;51.650;-0.522;2024-03-06T08:53:37;101216.20;;;6.80
68911;BMP180;55953;51.650;-0.522;2024-03-06T08:56:05;101215.00;;;6.90
68911;BMP180;55953;51.650;-0.522;2024-03-06T08:58:33;101216.60;;;7.00
68911;BMP180;55953;51.650;-0.522;2024-03-06T09:01:00;101216.40;;;7.14
68911;BMP180;55953;51.650;-0.522;2024-03-06T09:03:27;101219.60;;;7.38
68911;BMP180;55953;51.650;-0.522;2024-03-06T09:05:55;101227.60;;;7.46
68911;BMP180;55953;51.650;-0.522;2024-03-06T09:08:21;101234.20;;;7.60
68911;BMP180;55953;51.650;-0.522;2024-03-06T09:10:49;101235.00;;;7.60
68911;BMP180;55953;51.650;-0.522;2024-03-06T09:13:16;101234.60;;;7.70
68911;BMP180;55953;51.650;-0.522;2024-03-06T09:15:43;101236.20;;;7.80
68911;BMP180;55953;51.650;-0.522;2024-03-06T09:18:09;101235.80;;;7.90
68911;BMP180;55953;51.650;-0.522;2024-03-06T09:20:37;101233.20;;;7.90
68911;BMP180;55953;51.650;-0.522;2024-03-06T09:23:04;101240.60;;;8.10
68911;BMP180;55953;51.650;-0.522;2024-03-06T09:25:31;101245.00;;;8.10
68911;BMP180;55953;51.650;-0.522;2024-03-06T09:27:58;101244.60;;;8.10
68911;BMP180;55953;51.650;-0.522;2024-03-06T09:30:27;101246.80;;;8.10
68911;BMP180;55953;51.650;-0.522;2024-03-06T09:32:55;101245.00;;;8.20
68911;BMP180;55953;51.650;-0.522;2024-03-06T09:35:22;101242.40;;;8.20
68911;BMP180;55953;51.650;-0.522;2024-03-06T09:37:49;101248.80;;;8.20
68911;BMP180;55953;51.650;-0.522;2024-03-06T09:40:21;101249.20;;;8.30
68911;BMP180;55953;51.650;-0.522;2024-03-06T09:42:52;101250.40;;;8.38
68911;BMP180;55953;51.650;-0.522;2024-03-06T09:45:20;101256.80;;;8.40
68911;BMP180;55953;51.650;-0.522;2024-03-06T09:47:49;101255.60;;;8.46
68911;BMP180;55953;51.650;-0.522;2024-03-06T09:50:24;101254.00;;;8.50
68911;BMP180;55953;51.650;-0.522;2024-03-06T09:52:55;101259.00;;;8.50
68911;BMP180;55953;51.650;-0.522;2024-03-06T09:55:22;101257.20;;;8.60
68911;BMP180;55953;51.650;-0.522;2024-03-06T09:57:51;101261.60;;;8.60
68911;BMP180;55953;51.650;-0.522;2024-03-06T10:00:18;101257.60;;;8.60
68911;BMP180;55953;51.650;-0.522;2024-03-06T10:02:56;101257.40;;;8.70
68911;BMP180;55953;51.650;-0.522;2024-03-06T10:05:24;101261.80;;;8.72
68911;BMP180;55953;51.650;-0.522;2024-03-06T10:07:51;101266.40;;;8.78
68911;BMP180;55953;51.650;-0.522;2024-03-06T10:10:20;101266.20;;;8.90
68911;BMP180;55953;51.650;-0.522;2024-03-06T10:12:50;101272.20;;;9.10
68911;BMP180;55953;51.650;-0.522;2024-03-06T10:15:17;101267.20;;;9.26
68911;BMP180;55953;51.650;-0.522;2024-03-06T10:17:45;101268.00;;;9.40
68911;BMP180;55953;51.650;-0.522;2024-03-06T10:20:23;101265.40;;;9.40
68911;BMP180;55953;51.650;-0.522;2024-03-06T10:22:53;101269.00;;;9.50
68911;BMP180;55953;51.650;-0.522;2024-03-06T10:25:25;101265.00;;;9.62
68911;BMP180;55953;51.650;-0.522;2024-03-06T10:28:11;101263.40;;;9.80
68911;BMP180;55953;51.650;-0.522;2024-03-06T10:30:41;101270.00;;;9.90
68911;BMP180;55953;51.650;-0.522;2024-03-06T10:33:11;101270.60;;;10.00
68911;BMP180;55953;51.650;-0.522;2024-03-06T10:35:44;101273.00;;;10.08
68911;BMP180;55953;51.650;-0.522;2024-03-06T10:38:12;101270.60;;;10.02
68911;BMP180;55953;51.650;-0.522;2024-03-06T10:40:42;101271.00;;;10.12
68911;BMP180;55953;51.650;-0.522;2024-03-06T10:43:11;101273.40;;;10.30
68911;BMP180;55953;51.650;-0.522;2024-03-06T10:45:49;101274.60;;;10.36
68911;BMP180;55953;51.650;-0.522;2024-03-06T10:48:18;101274.20;;;10.48
68911;BMP180;55953;51.650;-0.522;2024-03-06T10:50:48;101275.60;;;10.58
68911;BMP180;55953;51.650;-0.522;2024-03-06T10:53:18;101278.00;;;10.66
68911;BMP180;55953;51.650;-0.522;2024-03-06T10:55:50;101276.40;;;10.70
68911;BMP180;55953;51.650;-0.522;2024-03-06T10:58:19;101281.60;;;10.70
68911;BMP180;55953;51.650;-0.522;2024-03-06T11:00:48;101275.20;;;10.76
68911;BMP180;55953;51.650;-0.522;2024-03-06T11:03:16;101274.60;;;10.80
68911;BMP180;55953;51.650;-0.522;2024-03-06T11:05:45;101275.20;;;10.82
68911;BMP180;55953;51.650;-0.522;2024-03-06T11:08:15;101284.60;;;10.80
68911;BMP180;55953;51.650;-0.522;2024-03-06T11:10:46;101282.40;;;10.90
68911;BMP180;55953;51.650;-0.522;2024-03-06T11:15:47;101285.60;;;11.00
68911;BMP180;55953;51.650;-0.522;2024-03-06T11:23:32;101287.00;;;11.00
68911;BMP180;55953;51.650;-0.522;2024-03-06T11:26:06;101289.00;;;11.00
68911;BMP180;55953;51.650;-0.522;2024-03-06T11:28:38;101292.60;;;11.00
68911;BMP180;55953;51.650;-0.522;2024-03-06T11:31:09;101288.00;;;11.12
68911;BMP180;55953;51.650;-0.522;2024-03-06T11:33:52;101285.00;;;11.20
68911;BMP180;55953;51.650;-0.522;2024-03-06T11:39:08;101290.40;;;11.24
68911;BMP180;55953;51.650;-0.522;2024-03-06T11:44:16;101292.60;;;11.40
68911;BMP180;55953;51.650;-0.522;2024-03-06T11:46:44;101296.00;;;11.40
68911;BMP180;55953;51.650;-0.522;2024-03-06T11:49:23;101298.80;;;11.40
68911;BMP180;55953;51.650;-0.522;2024-03-06T11:51:54;101299.80;;;11.50
68911;BMP180;55953;51.650;-0.522;2024-03-06T11:54:23;101297.40;;;11.34
68911;BMP180;55953;51.650;-0.522;2024-03-06T11:56:58;101297.40;;;11.18
68911;BMP180;55953;51.650;-0.522;2024-03-06T11:59:27;101300.80;;;10.96
68911;BMP180;55953;51.650;-0.522;2024-03-06T12:01:57;101295.40;;;10.90
68911;BMP180;55953;51.650;-0.522;2024-03-06T12:04:25;101298.40;;;10.90
68911;BMP180;55953;51.650;-0.522;2024-03-06T12:06:52;101297.20;;;10.90
68911;BMP180;55953;51.650;-0.522;2024-03-06T12:09:19;101297.60;;;10.88
68911;BMP180;55953;51.650;-0.522;2024-03-06T12:11:47;101298.40;;;10.80
68911;BMP180;55953;51.650;-0.522;2024-03-06T12:14:18;101297.60;;;10.66
68911;BMP180;55953;51.650;-0.522;2024-03-06T12:19:27;101289.40;;;10.80
68911;BMP180;55953;51.650;-0.522;2024-03-06T12:21:55;101286.60;;;10.90
68911;BMP180;55953;51.650;-0.522;2024-03-06T12:24:22;101290.60;;;11.00
68911;BMP180;55953;51.650;-0.522;2024-03-06T12:27:04;101290.20;;;10.96
68911;BMP180;55953;51.650;-0.522;2024-03-06T12:29:33;101285.60;;;11.10
68911;BMP180;55953;51.650;-0.522;2024-03-06T12:32:02;101282.00;;;11.20
68911;BMP180;55953;51.650;-0.522;2024-03-06T12:34:30;101278.40;;;11.30
68911;BMP180;55953;51.650;-0.522;2024-03-06T12:37:09;101281.60;;;11.40
68911;BMP180;55953;51.650;-0.522;2024-03-06T12:39:38;101282.60;;;11.50
68911;BMP180;55953;51.650;-0.522;2024-03-06T12:42:09;101281.40;;;11.50
68911;BMP180;55953;51.650;-0.522;2024-03-06T12:44:38;101278.00;;;11.60
68911;BMP180;55953;51.650;-0.522;2024-03-06T12:47:07;101276.60;;;11.80
68911;BMP180;55953;51.650;-0.522;2024-03-06T12:49:34;101277.60;;;11.82
68911;BMP180;55953;51.650;-0.522;2024-03-06T12:52:01;101271.60;;;12.00
68911;BMP180;55953;51.650;-0.522;2024-03-06T12:54:31;101273.40;;;12.10
68911;BMP180;55953;51.650;-0.522;2024-03-06T12:56:58;101272.60;;;12.10
68911;BMP180;55953;51.650;-0.522;2024-03-06T12:59:25;101270.40;;;12.10
68911;BMP180;55953;51.650;-0.522;2024-03-06T13:01:52;101266.20;;;12.20
68911;BMP180;55953;51.650;-0.522;2024-03-06T13:04:21;101266.60;;;12.20
68911;BMP180;55953;51.650;-0.522;2024-03-06T13:06:48;101267.00;;;12.30
68911;BMP180;55953;51.650;-0.522;2024-03-06T13:09:15;101259.60;;;12.40
68911;BMP180;55953;51.650;-0.522;2024-03-06T13:11:42;101265.60;;;12.60
68911;BMP180;55953;51.650;-0.522;2024-03-06T13:14:10;101267.00;;;12.80
68911;BMP180;55953;51.650;-0.522;2024-03-06T13:16:39;101267.60;;;12.80
68911;BMP180;55953;51.650;-0.522;2024-03-06T13:19:07;101266.80;;;13.00
68911;BMP180;55953;51.650;-0.522;2024-03-06T13:21:35;101262.60;;;13.00
68911;BMP180;55953;51.650;-0.522;2024-03-06T13:24:02;101258.60;;;13.00
68911;BMP180;55953;51.650;-0.522;2024-03-06T13:26:30;101257.20;;;12.78
68911;BMP180;55953;51.650;-0.522;2024-03-06T13:28:58;101261.80;;;12.80
68911;BMP180;55953;51.650;-0.522;2024-03-06T13:31:27;101260.00;;;12.80
68911;BMP180;55953;51.650;-0.522;2024-03-06T13:33:54;101266.20;;;12.88
68911;BMP180;55953;51.650;-0.522;2024-03-06T13:36:21;101261.00;;;13.00
68911;BMP180;55953;51.650;-0.522;2024-03-06T13:38:49;101258.60;;;13.02
68911;BMP180;55953;51.650;-0.522;2024-03-06T13:41:16;101256.20;;;13.10
68911;BMP180;55953;51.650;-0.522;2024-03-06T13:43:43;101259.60;;;13.10
68911;BMP180;55953;51.650;-0.522;2024-03-06T13:46:10;101258.40;;;13.20
68911;BMP180;55953;51.650;-0.522;2024-03-06T13:48:38;101262.40;;;13.20
68911;BMP180;55953;51.650;-0.522;2024-03-06T13:51:05;101258.60;;;13.20
68911;BMP180;55953;51.650;-0.522;2024-03-06T13:53:32;101264.60;;;13.20
68911;BMP180;55953;51.650;-0.522;2024-03-06T13:55:59;101263.20;;;13.20
68911;BMP180;55953;51.650;-0.522;2024-03-06T13:58:27;101262.00;;;13.04
68911;BMP180;55953;51.650;-0.522;2024-03-06T14:00:54;101263.40;;;13.00
68911;BMP180;55953;51.650;-0.522;2024-03-06T14:03:21;101272.40;;;12.90
68911;BMP180;55953;51.650;-0.522;2024-03-06T14:05:48;101271.80;;;12.80
68911;BMP180;55953;51.650;-0.522;2024-03-06T14:08:16;101270.40;;;12.80
68911;BMP180;55953;51.650;-0.522;2024-03-06T14:10:44;101273.40;;;12.80
68911;BMP180;55953;51.650;-0.522;2024-03-06T14:13:13;101272.80;;;12.80
68911;BMP180;55953;51.650;-0.522;2024-03-06T14:15:40;101274.00;;;12.70
68911;BMP180;55953;51.650;-0.522;2024-03-06T14:18:07;101274.40;;;12.60
68911;BMP180;55953;51.650;-0.522;2024-03-06T14:20:34;101270.60;;;12.60
68911;BMP180;55953;51.650;-0.522;2024-03-06T14:23:01;101269.00;;;12.70